sensor_id;sensor_type;location;lat;lon;timestamp;P1;durP1;ratioP1;P2;durP2;ratioP2
76194;SDS011;64964;48.694;21.206;2024-01-07T00:02:09;11.53;;;7.43;;
76194;SDS011;64964;48.694;21.206;2024-01-07T00:04:34;50.87;;;26.23;;
76194;SDS011;64964;48.694;21.206;2024-01-07T00:07:00;22.20;;;13.50;;
76194;SDS011;64964;48.694;21.206;2024-01-07T00:09:25;31.67;;;18.93;;
76194;SDS011;64964;48.694;21.206;2024-01-07T00:11:51;6.47;;;4.80;;
76194;SDS011;64964;48.694;21.206;2024-01-07T00:14:16;5.03;;;3.78;;
76194;SDS011;64964;48.694;21.206;2024-01-07T00:16:42;3.43;;;2.20;;
76194;SDS011;64964;48.694;21.206;2024-01-07T00:19:07;2.97;;;2.10;;
76194;SDS011;64964;48.694;21.206;2024-01-07T00:21:33;4.25;;;2.60;;
76194;SDS011;64964;48.694;21.206;2024-01-07T00:23:58;3.53;;;2.33;;
76194;SDS011;64964;48.694;21.206;2024-01-07T00:26:23;2.27;;;1.87;;
76194;SDS011;64964;48.694;21.206;2024-01-07T00:28:49;2.10;;;1.80;;
76194;SDS011;64964;48.694;21.206;2024-01-07T00:31:14;2.80;;;2.50;;
76194;SDS011;64964;48.694;21.206;2024-01-07T00:33:39;2.57;;;1.93;;
76194;SDS011;64964;48.694;21.206;2024-01-07T00:36:05;2.22;;;1.80;;
76194;SDS011;64964;48.694;21.206;2024-01-07T00:38:30;2.60;;;1.77;;
76194;SDS011;64964;48.694;21.206;2024-01-07T00:40:56;2.00;;;1.73;;
76194;SDS011;64964;48.694;21.206;2024-01-07T00:43:21;2.50;;;1.90;;
76194;SDS011;64964;48.694;21.206;2024-01-07T00:45:46;2.50;;;1.93;;
76194;SDS011;64964;48.694;21.206;2024-01-07T00:48:13;2.00;;;1.60;;
76194;SDS011;64964;48.694;21.206;2024-01-07T00:50:39;2.03;;;1.73;;
76194;SDS011;64964;48.694;21.206;2024-01-07T00:53:05;1.70;;;1.60;;
76194;SDS011;64964;48.694;21.206;2024-01-07T00:55:30;1.70;;;1.50;;
76194;SDS011;64964;48.694;21.206;2024-01-07T00:57:55;3.63;;;1.70;;
76194;SDS011;64964;48.694;21.206;2024-01-07T01:00:21;1.93;;;1.70;;
76194;SDS011;64964;48.694;21.206;2024-01-07T01:02:47;2.83;;;2.00;;
76194;SDS011;64964;48.694;21.206;2024-01-07T01:05:12;2.37;;;1.90;;
76194;SDS011;64964;48.694;21.206;2024-01-07T01:07:38;2.33;;;1.60;;
76194;SDS011;64964;48.694;21.206;2024-01-07T01:10:03;2.43;;;1.73;;
76194;SDS011;64964;48.694;21.206;2024-01-07T01:12:29;2.00;;;1.80;;
76194;SDS011;64964;48.694;21.206;2024-01-07T01:14:54;2.23;;;1.60;;
76194;SDS011;64964;48.694;21.206;2024-01-07T01:17:20;1.80;;;1.50;;
76194;SDS011;64964;48.694;21.206;2024-01-07T01:19:45;1.57;;;1.47;;
76194;SDS011;64964;48.694;21.206;2024-01-07T01:22:11;1.38;;;1.27;;
76194;SDS011;64964;48.694;21.206;2024-01-07T01:24:36;2.03;;;1.60;;
76194;SDS011;64964;48.694;21.206;2024-01-07T01:27:01;1.60;;;1.23;;
76194;SDS011;64964;48.694;21.206;2024-01-07T01:29:27;1.50;;;1.30;;
76194;SDS011;64964;48.694;21.206;2024-01-07T01:31:52;1.60;;;1.30;;
76194;SDS011;64964;48.694;21.206;2024-01-07T01:34:17;2.37;;;1.40;;
76194;SDS011;64964;48.694;21.206;2024-01-07T01:36:43;2.20;;;1.50;;
76194;SDS011;64964;48.694;21.206;2024-01-07T01:39:08;2.20;;;1.30;;
76194;SDS011;64964;48.694;21.206;2024-01-07T01:41:33;3.57;;;1.27;;
76194;SDS011;64964;48.694;21.206;2024-01-07T01:43:59;1.23;;;1.13;;
76194;SDS011;64964;48.694;21.206;2024-01-07T01:46:25;1.20;;;1.10;;
76194;SDS011;64964;48.694;21.206;2024-01-07T01:48:53;1.27;;;1.17;;
76194;SDS011;64964;48.694;21.206;2024-01-07T01:51:19;2.28;;;1.25;;
76194;SDS011;64964;48.694;21.206;2024-01-07T01:53:45;2.03;;;1.33;;
76194;SDS011;64964;48.694;21.206;2024-01-07T01:56:12;2.00;;;1.52;;
76194;SDS011;64964;48.694;21.206;2024-01-07T01:58:38;1.52;;;1.40;;
76194;SDS011;64964;48.694;21.206;2024-01-07T02:01:04;1.47;;;1.17;;
76194;SDS011;64964;48.694;21.206;2024-01-07T02:03:29;1.42;;;1.10;;
76194;SDS011;64964;48.694;21.206;2024-01-07T02:05:55;2.07;;;1.10;;
76194;SDS011;64964;48.694;21.206;2024-01-07T02:08:22;1.52;;;1.00;;
76194;SDS011;64964;48.694;21.206;2024-01-07T02:10:48;2.17;;;1.07;;
76194;SDS011;64964;48.694;21.206;2024-01-07T02:13:13;1.67;;;1.00;;
76194;SDS011;64964;48.694;21.206;2024-01-07T02:15:39;1.10;;;1.00;;
76194;SDS011;64964;48.694;21.206;2024-01-07T02:18:04;0.90;;;0.90;;
76194;SDS011;64964;48.694;21.206;2024-01-07T02:20:30;0.80;;;0.80;;
76194;SDS011;64964;48.694;21.206;2024-01-07T02:22:55;0.70;;;0.70;;
76194;SDS011;64964;48.694;21.206;2024-01-07T02:25:23;0.90;;;0.80;;
76194;SDS011;64964;48.694;21.206;2024-01-07T02:27:48;0.88;;;0.88;;
76194;SDS011;64964;48.694;21.206;2024-01-07T02:30:14;1.40;;;0.90;;
76194;SDS011;64964;48.694;21.206;2024-01-07T02:32:39;0.90;;;0.80;;
76194;SDS011;64964;48.694;21.206;2024-01-07T02:35:05;0.70;;;0.60;;
76194;SDS011;64964;48.694;21.206;2024-01-07T02:37:30;0.70;;;0.70;;
76194;SDS011;64964;48.694;21.206;2024-01-07T02:39:56;0.90;;;0.80;;
76194;SDS011;64964;48.694;21.206;2024-01-07T02:42:21;0.73;;;0.70;;
76194;SDS011;64964;48.694;21.206;2024-01-07T02:44:46;0.73;;;0.73;;
76194;SDS011;64964;48.694;21.206;2024-01-07T02:47:12;0.80;;;0.80;;
76194;SDS011;64964;48.694;21.206;2024-01-07T02:49:37;0.70;;;0.70;;
76194;SDS011;64964;48.694;21.206;2024-01-07T02:52:03;0.70;;;0.60;;
76194;SDS011;64964;48.694;21.206;2024-01-07T02:54:28;1.17;;;0.70;;
76194;SDS011;64964;48.694;21.206;2024-01-07T02:56:54;0.73;;;0.60;;
76194;SDS011;64964;48.694;21.206;2024-01-07T02:59:19;0.70;;;0.60;;
76194;SDS011;64964;48.694;21.206;2024-01-07T03:01:44;1.13;;;0.63;;
76194;SDS011;64964;48.694;21.206;2024-01-07T03:04:10;1.23;;;0.60;;
76194;SDS011;64964;48.694;21.206;2024-01-07T03:06:37;0.60;;;0.60;;
76194;SDS011;64964;48.694;21.206;2024-01-07T03:09:03;0.70;;;0.70;;
76194;SDS011;64964;48.694;21.206;2024-01-07T03:11:28;0.70;;;0.67;;
76194;SDS011;64964;48.694;21.206;2024-01-07T03:13:54;0.70;;;0.70;;
76194;SDS011;64964;48.694;21.206;2024-01-07T03:16:21;1.00;;;0.90;;
76194;SDS011;64964;48.694;21.206;2024-01-07T03:18:47;0.65;;;0.65;;
76194;SDS011;64964;48.694;21.206;2024-01-07T03:21:18;2.40;;;0.70;;
76194;SDS011;64964;48.694;21.206;2024-01-07T03:23:44;0.98;;;0.70;;
76194;SDS011;64964;48.694;21.206;2024-01-07T03:26:10;0.90;;;0.60;;
76194;SDS011;64964;48.694;21.206;2024-01-07T03:28:35;1.17;;;0.50;;
76194;SDS011;64964;48.694;21.206;2024-01-07T03:31:14;1.80;;;0.67;;
76194;SDS011;64964;48.694;21.206;2024-01-07T03:33:41;0.90;;;0.65;;
76194;SDS011;64964;48.694;21.206;2024-01-07T03:36:08;0.65;;;0.60;;
76194;SDS011;64964;48.694;21.206;2024-01-07T03:38:34;0.40;;;0.40;;
76194;SDS011;64964;48.694;21.206;2024-01-07T03:40:59;1.10;;;0.50;;
76194;SDS011;64964;48.694;21.206;2024-01-07T03:43:25;0.97;;;0.60;;
76194;SDS011;64964;48.694;21.206;2024-01-07T03:45:50;1.33;;;0.50;;
76194;SDS011;64964;48.694;21.206;2024-01-07T03:48:15;0.50;;;0.50;;
76194;SDS011;64964;48.694;21.206;2024-01-07T03:50:41;0.50;;;0.50;;
76194;SDS011;64964;48.694;21.206;2024-01-07T03:53:06;0.50;;;0.50;;
76194;SDS011;64964;48.694;21.206;2024-01-07T03:55:31;1.37;;;0.50;;
76194;SDS011;64964;48.694;21.206;2024-01-07T03:57:57;0.70;;;0.50;;
76194;SDS011;64964;48.694;21.206;2024-01-07T04:00:22;1.37;;;0.60;;
76194;SDS011;64964;48.694;21.206;2024-01-07T04:02:47;0.60;;;0.60;;
76194;SDS011;64964;48.694;21.206;2024-01-07T04:05:13;0.70;;;0.50;;
76194;SDS011;64964;48.694;21.206;2024-01-07T04:07:40;0.63;;;0.60;;
76194;SDS011;64964;48.694;21.206;2024-01-07T04:10:05;0.53;;;0.53;;
76194;SDS011;64964;48.694;21.206;2024-01-07T04:12:31;0.75;;;0.60;;
76194;SDS011;64964;48.694;21.206;2024-01-07T04:14:56;1.13;;;0.57;;
76194;SDS011;64964;48.694;21.206;2024-01-07T04:17:23;0.50;;;0.50;;
76194;SDS011;64964;48.694;21.206;2024-01-07T04:19:48;0.40;;;0.40;;
76194;SDS011;64964;48.694;21.206;2024-01-07T04:22:14;1.00;;;0.60;;
76194;SDS011;64964;48.694;21.206;2024-01-07T04:24:42;0.40;;;0.40;;
76194;SDS011;64964;48.694;21.206;2024-01-07T04:27:08;0.50;;;0.50;;
76194;SDS011;64964;48.694;21.206;2024-01-07T04:29:33;0.80;;;0.50;;
76194;SDS011;64964;48.694;21.206;2024-01-07T04:31:59;1.40;;;0.60;;
76194;SDS011;64964;48.694;21.206;2024-01-07T04:34:24;0.70;;;0.50;;
76194;SDS011;64964;48.694;21.206;2024-01-07T04:36:50;0.50;;;0.50;;
76194;SDS011;64964;48.694;21.206;2024-01-07T04:39:16;0.45;;;0.45;;
76194;SDS011;64964;48.694;21.206;2024-01-07T04:41:41;0.50;;;0.50;;
76194;SDS011;64964;48.694;21.206;2024-01-07T04:44:06;0.40;;;0.40;;
76194;SDS011;64964;48.694;21.206;2024-01-07T04:46:37;0.40;;;0.40;;
76194;SDS011;64964;48.694;21.206;2024-01-07T04:49:03;0.40;;;0.40;;
76194;SDS011;64964;48.694;21.206;2024-01-07T04:51:30;0.70;;;0.50;;
76194;SDS011;64964;48.694;21.206;2024-01-07T04:53:56;1.67;;;0.50;;
76194;SDS011;64964;48.694;21.206;2024-01-07T04:56:21;0.60;;;0.60;;
76194;SDS011;64964;48.694;21.206;2024-01-07T04:58:47;0.57;;;0.40;;
76194;SDS011;64964;48.694;21.206;2024-01-07T05:01:12;0.40;;;0.40;;
76194;SDS011;64964;48.694;21.206;2024-01-07T05:03:37;0.40;;;0.40;;
76194;SDS011;64964;48.694;21.206;2024-01-07T05:06:03;0.40;;;0.40;;
76194;SDS011;64964;48.694;21.206;2024-01-07T05:08:29;0.40;;;0.40;;
76194;SDS011;64964;48.694;21.206;2024-01-07T05:10:54;0.40;;;0.40;;
76194;SDS011;64964;48.694;21.206;2024-01-07T05:13:19;0.65;;;0.43;;
76194;SDS011;64964;48.694;21.206;2024-01-07T05:15:45;0.30;;;0.30;;
76194;SDS011;64964;48.694;21.206;2024-01-07T05:18:12;0.40;;;0.40;;
76194;SDS011;64964;48.694;21.206;2024-01-07T05:20:37;0.50;;;0.40;;
76194;SDS011;64964;48.694;21.206;2024-01-07T05:23:03;0.40;;;0.40;;
76194;SDS011;64964;48.694;21.206;2024-01-07T05:25:28;0.40;;;0.40;;
76194;SDS011;64964;48.694;21.206;2024-01-07T05:27:54;0.50;;;0.40;;
76194;SDS011;64964;48.694;21.206;2024-01-07T05:30:19;0.50;;;0.50;;
76194;SDS011;64964;48.694;21.206;2024-01-07T05:32:45;0.40;;;0.40;;
76194;SDS011;64964;48.694;21.206;2024-01-07T05:35:11;0.40;;;0.40;;
76194;SDS011;64964;48.694;21.206;2024-01-07T05:37:36;0.52;;;0.40;;
76194;SDS011;64964;48.694;21.206;2024-01-07T05:40:02;0.67;;;0.50;;
76194;SDS011;64964;48.694;21.206;2024-01-07T05:42:27;0.40;;;0.40;;
76194;SDS011;64964;48.694;21.206;2024-01-07T05:44:52;0.53;;;0.50;;
76194;SDS011;64964;48.694;21.206;2024-01-07T05:47:18;0.47;;;0.47;;
76194;SDS011;64964;48.694;21.206;2024-01-07T05:49:43;0.50;;;0.50;;
76194;SDS011;64964;48.694;21.206;2024-01-07T05:52:08;1.20;;;0.50;;
76194;SDS011;64964;48.694;21.206;2024-01-07T05:54:34;0.33;;;0.33;;
76194;SDS011;64964;48.694;21.206;2024-01-07T05:56:59;0.60;;;0.50;;
76194;SDS011;64964;48.694;21.206;2024-01-07T05:59:25;0.87;;;0.60;;
76194;SDS011;64964;48.694;21.206;2024-01-07T06:01:50;0.50;;;0.50;;
76194;SDS011;64964;48.694;21.206;2024-01-07T06:04:15;0.73;;;0.63;;
76194;SDS011;64964;48.694;21.206;2024-01-07T06:06:41;0.40;;;0.40;;
76194;SDS011;64964;48.694;21.206;2024-01-07T06:09:06;2.00;;;0.60;;
76194;SDS011;64964;48.694;21.206;2024-01-07T06:11:32;0.65;;;0.50;;
76194;SDS011;64964;48.694;21.206;2024-01-07T06:13:57;0.50;;;0.50;;
76194;SDS011;64964;48.694;21.206;2024-01-07T06:16:22;0.90;;;0.70;;
76194;SDS011;64964;48.694;21.206;2024-01-07T06:18:48;0.57;;;0.50;;
76194;SDS011;64964;48.694;21.206;2024-01-07T06:21:13;1.02;;;0.50;;
76194;SDS011;64964;48.694;21.206;2024-01-07T06:23:39;0.40;;;0.40;;
76194;SDS011;64964;48.694;21.206;2024-01-07T06:26:04;0.93;;;0.60;;
76194;SDS011;64964;48.694;21.206;2024-01-07T06:28:30;0.90;;;0.70;;
76194;SDS011;64964;48.694;21.206;2024-01-07T06:30:55;1.10;;;0.57;;
76194;SDS011;64964;48.694;21.206;2024-01-07T06:33:20;0.50;;;0.50;;
76194;SDS011;64964;48.694;21.206;2024-01-07T06:35:46;0.70;;;0.57;;
76194;SDS011;64964;48.694;21.206;2024-01-07T06:38:11;0.80;;;0.60;;
76194;SDS011;64964;48.694;21.206;2024-01-07T06:40:37;1.03;;;0.60;;
76194;SDS011;64964;48.694;21.206;2024-01-07T06:43:02;0.70;;;0.57;;
76194;SDS011;64964;48.694;21.206;2024-01-07T06:45:28;0.50;;;0.50;;
76194;SDS011;64964;48.694;21.206;2024-01-07T06:47:53;0.57;;;0.57;;
76194;SDS011;64964;48.694;21.206;2024-01-07T06:50:19;1.07;;;0.53;;
76194;SDS011;64964;48.694;21.206;2024-01-07T06:52:45;0.60;;;0.60;;
76194;SDS011;64964;48.694;21.206;2024-01-07T06:55:11;0.60;;;0.60;;
76194;SDS011;64964;48.694;21.206;2024-01-07T06:57:36;0.70;;;0.50;;
76194;SDS011;64964;48.694;21.206;2024-01-07T07:00:01;1.07;;;0.60;;
76194;SDS011;64964;48.694;21.206;2024-01-07T07:02:28;0.63;;;0.60;;
76194;SDS011;64964;48.694;21.206;2024-01-07T07:04:53;0.57;;;0.57;;
76194;SDS011;64964;48.694;21.206;2024-01-07T07:07:19;1.30;;;0.80;;
76194;SDS011;64964;48.694;21.206;2024-01-07T07:09:44;0.60;;;0.60;;
76194;SDS011;64964;48.694;21.206;2024-01-07T07:12:11;0.70;;;0.70;;
76194;SDS011;64964;48.694;21.206;2024-01-07T07:14:37;0.70;;;0.70;;
76194;SDS011;64964;48.694;21.206;2024-01-07T07:17:02;0.65;;;0.65;;
76194;SDS011;64964;48.694;21.206;2024-01-07T07:19:28;0.70;;;0.70;;
76194;SDS011;64964;48.694;21.206;2024-01-07T07:21:53;0.73;;;0.70;;
76194;SDS011;64964;48.694;21.206;2024-01-07T07:24:19;0.77;;;0.70;;
76194;SDS011;64964;48.694;21.206;2024-01-07T07:26:44;1.03;;;0.90;;
76194;SDS011;64964;48.694;21.206;2024-01-07T07:29:09;0.80;;;0.80;;
76194;SDS011;64964;48.694;21.206;2024-01-07T07:31:35;1.10;;;0.87;;
76194;SDS011;64964;48.694;21.206;2024-01-07T07:34:03;1.13;;;0.90;;
76194;SDS011;64964;48.694;21.206;2024-01-07T07:36:29;0.80;;;0.73;;
76194;SDS011;64964;48.694;21.206;2024-01-07T07:38:54;0.70;;;0.70;;
76194;SDS011;64964;48.694;21.206;2024-01-07T07:41:20;1.80;;;0.90;;
76194;SDS011;64964;48.694;21.206;2024-01-07T07:43:45;1.70;;;0.98;;
76194;SDS011;64964;48.694;21.206;2024-01-07T07:46:10;1.07;;;0.97;;
76194;SDS011;64964;48.694;21.206;2024-01-07T07:48:37;1.48;;;0.98;;
76194;SDS011;64964;48.694;21.206;2024-01-07T07:51:02;1.20;;;0.90;;
76194;SDS011;64964;48.694;21.206;2024-01-07T07:53:28;1.67;;;1.00;;
76194;SDS011;64964;48.694;21.206;2024-01-07T07:55:53;1.50;;;1.10;;
76194;SDS011;64964;48.694;21.206;2024-01-07T07:58:19;1.37;;;1.10;;
76194;SDS011;64964;48.694;21.206;2024-01-07T08:00:45;1.60;;;1.20;;
76194;SDS011;64964;48.694;21.206;2024-01-07T08:03:10;1.00;;;0.90;;
76194;SDS011;64964;48.694;21.206;2024-01-07T08:05:35;1.07;;;0.97;;
76194;SDS011;64964;48.694;21.206;2024-01-07T08:08:01;1.15;;;1.02;;
76194;SDS011;64964;48.694;21.206;2024-01-07T08:10:26;1.37;;;0.97;;
76194;SDS011;64964;48.694;21.206;2024-01-07T08:12:53;1.73;;;1.10;;
76194;SDS011;64964;48.694;21.206;2024-01-07T08:15:19;1.47;;;1.13;;
76194;SDS011;64964;48.694;21.206;2024-01-07T08:17:44;1.02;;;1.00;;
76194;SDS011;64964;48.694;21.206;2024-01-07T08:20:10;2.20;;;1.20;;
76194;SDS011;64964;48.694;21.206;2024-01-07T08:22:36;1.17;;;1.00;;
76194;SDS011;64964;48.694;21.206;2024-01-07T08:25:01;1.60;;;1.10;;
76194;SDS011;64964;48.694;21.206;2024-01-07T08:27:27;1.43;;;1.10;;
76194;SDS011;64964;48.694;21.206;2024-01-07T08:29:52;1.73;;;1.17;;
76194;SDS011;64964;48.694;21.206;2024-01-07T08:32:18;1.63;;;1.20;;
76194;SDS011;64964;48.694;21.206;2024-01-07T08:34:44;2.50;;;1.40;;
76194;SDS011;64964;48.694;21.206;2024-01-07T08:37:10;1.87;;;1.53;;
76194;SDS011;64964;48.694;21.206;2024-01-07T08:39:35;2.50;;;1.48;;
76194;SDS011;64964;48.694;21.206;2024-01-07T08:42:01;1.83;;;1.20;;
76194;SDS011;64964;48.694;21.206;2024-01-07T08:44:28;2.35;;;1.30;;
76194;SDS011;64964;48.694;21.206;2024-01-07T08:46:54;3.07;;;1.97;;
76194;SDS011;64964;48.694;21.206;2024-01-07T08:49:19;4.27;;;2.17;;
76194;SDS011;64964;48.694;21.206;2024-01-07T08:51:44;3.33;;;1.80;;
76194;SDS011;64964;48.694;21.206;2024-01-07T08:54:10;2.00;;;1.50;;
76194;SDS011;64964;48.694;21.206;2024-01-07T08:56:35;1.80;;;1.53;;
76194;SDS011;64964;48.694;21.206;2024-01-07T08:59:01;4.03;;;1.73;;
76194;SDS011;64964;48.694;21.206;2024-01-07T09:01:26;2.57;;;1.60;;
76194;SDS011;64964;48.694;21.206;2024-01-07T09:03:51;2.30;;;1.27;;
76194;SDS011;64964;48.694;21.206;2024-01-07T09:06:17;2.07;;;1.40;;
76194;SDS011;64964;48.694;21.206;2024-01-07T09:08:42;2.17;;;1.50;;
76194;SDS011;64964;48.694;21.206;2024-01-07T09:11:08;2.57;;;1.70;;
76194;SDS011;64964;48.694;21.206;2024-01-07T09:13:36;3.40;;;1.70;;
76194;SDS011;64964;48.694;21.206;2024-01-07T09:16:01;2.35;;;1.60;;
76194;SDS011;64964;48.694;21.206;2024-01-07T09:18:27;2.20;;;1.60;;
76194;SDS011;64964;48.694;21.206;2024-01-07T09:20:52;1.40;;;1.30;;
76194;SDS011;64964;48.694;21.206;2024-01-07T09:23:18;2.60;;;1.55;;
76194;SDS011;64964;48.694;21.206;2024-01-07T09:25:43;2.20;;;1.37;;
76194;SDS011;64964;48.694;21.206;2024-01-07T09:28:08;1.67;;;1.30;;
76194;SDS011;64964;48.694;21.206;2024-01-07T09:30:34;2.43;;;1.40;;
76194;SDS011;64964;48.694;21.206;2024-01-07T09:32:59;3.60;;;2.10;;
76194;SDS011;64964;48.694;21.206;2024-01-07T09:35:25;3.10;;;1.70;;
76194;SDS011;64964;48.694;21.206;2024-01-07T09:37:50;2.20;;;1.73;;
76194;SDS011;64964;48.694;21.206;2024-01-07T09:40:18;1.90;;;1.40;;
76194;SDS011;64964;48.694;21.206;2024-01-07T09:42:44;1.95;;;1.58;;
76194;SDS011;64964;48.694;21.206;2024-01-07T09:45:10;2.33;;;1.60;;
76194;SDS011;64964;48.694;21.206;2024-01-07T09:47:38;2.00;;;1.50;;
76194;SDS011;64964;48.694;21.206;2024-01-07T09:50:10;1.70;;;1.30;;
76194;SDS011;64964;48.694;21.206;2024-01-07T09:52:35;2.17;;;1.45;;
76194;SDS011;64964;48.694;21.206;2024-01-07T09:55:03;2.97;;;1.70;;
76194;SDS011;64964;48.694;21.206;2024-01-07T09:57:34;1.98;;;1.50;;
76194;SDS011;64964;48.694;21.206;2024-01-07T09:59:59;2.30;;;1.93;;
76194;SDS011;64964;48.694;21.206;2024-01-07T10:02:26;2.08;;;1.58;;
76194;SDS011;64964;48.694;21.206;2024-01-07T10:04:51;2.17;;;1.50;;
76194;SDS011;64964;48.694;21.206;2024-01-07T10:07:16;1.80;;;1.50;;
76194;SDS011;64964;48.694;21.206;2024-01-07T10:09:42;2.67;;;1.70;;
76194;SDS011;64964;48.694;21.206;2024-01-07T10:12:08;4.70;;;1.70;;
76194;SDS011;64964;48.694;21.206;2024-01-07T10:14:33;2.37;;;1.70;;
76194;SDS011;64964;48.694;21.206;2024-01-07T10:17:00;2.97;;;1.80;;
76194;SDS011;64964;48.694;21.206;2024-01-07T10:19:25;1.87;;;1.40;;
76194;SDS011;64964;48.694;21.206;2024-01-07T10:22:00;2.43;;;1.70;;
76194;SDS011;64964;48.694;21.206;2024-01-07T10:24:36;3.47;;;1.80;;
76194;SDS011;64964;48.694;21.206;2024-01-07T10:27:03;2.40;;;1.53;;
76194;SDS011;64964;48.694;21.206;2024-01-07T10:29:30;2.72;;;1.77;;
76194;SDS011;64964;48.694;21.206;2024-01-07T10:32:04;3.50;;;1.70;;
76194;SDS011;64964;48.694;21.206;2024-01-07T10:34:31;2.60;;;1.75;;
76194;SDS011;64964;48.694;21.206;2024-01-07T10:36:58;2.73;;;1.60;;
76194;SDS011;64964;48.694;21.206;2024-01-07T10:39:25;2.88;;;1.70;;
76194;SDS011;64964;48.694;21.206;2024-01-07T10:41:50;3.70;;;2.00;;
76194;SDS011;64964;48.694;21.206;2024-01-07T10:44:22;2.50;;;1.77;;
76194;SDS011;64964;48.694;21.206;2024-01-07T10:46:48;2.60;;;1.80;;
76194;SDS011;64964;48.694;21.206;2024-01-07T10:49:18;3.25;;;1.67;;
76194;SDS011;64964;48.694;21.206;2024-01-07T10:52:10;3.00;;;2.13;;
76194;SDS011;64964;48.694;21.206;2024-01-07T10:54:36;2.72;;;1.70;;
76194;SDS011;64964;48.694;21.206;2024-01-07T10:59:38;3.67;;;1.80;;
76194;SDS011;64964;48.694;21.206;2024-01-07T11:02:05;2.40;;;1.80;;
76194;SDS011;64964;48.694;21.206;2024-01-07T11:04:37;2.60;;;1.70;;
76194;SDS011;64964;48.694;21.206;2024-01-07T11:07:12;3.35;;;1.65;;
76194;SDS011;64964;48.694;21.206;2024-01-07T11:12:33;4.07;;;1.92;;
76194;SDS011;64964;48.694;21.206;2024-01-07T11:14:59;2.97;;;1.77;;
76194;SDS011;64964;48.694;21.206;2024-01-07T11:20:02;2.92;;;1.92;;
76194;SDS011;64964;48.694;21.206;2024-01-07T11:22:30;2.80;;;1.77;;
76194;SDS011;64964;48.694;21.206;2024-01-07T11:24:59;2.93;;;1.77;;
76194;SDS011;64964;48.694;21.206;2024-01-07T11:27:30;2.50;;;1.77;;
76194;SDS011;64964;48.694;21.206;2024-01-07T11:32:30;4.25;;;2.00;;
76194;SDS011;64964;48.694;21.206;2024-01-07T11:34:55;3.38;;;1.85;;
76194;SDS011;64964;48.694;21.206;2024-01-07T11:37:24;3.20;;;1.57;;
76194;SDS011;64964;48.694;21.206;2024-01-07T11:39:51;3.42;;;1.90;;
76194;SDS011;64964;48.694;21.206;2024-01-07T11:42:20;3.00;;;2.00;;
76194;SDS011;64964;48.694;21.206;2024-01-07T11:44:53;2.92;;;1.73;;
76194;SDS011;64964;48.694;21.206;2024-01-07T11:47:20;3.50;;;1.88;;
76194;SDS011;64964;48.694;21.206;2024-01-07T11:49:46;2.40;;;1.73;;
76194;SDS011;64964;48.694;21.206;2024-01-07T11:52:12;16.02;;;7.03;;
76194;SDS011;64964;48.694;21.206;2024-01-07T11:54:38;4.05;;;2.20;;
76194;SDS011;64964;48.694;21.206;2024-01-07T11:57:06;6.82;;;2.72;;
76194;SDS011;64964;48.694;21.206;2024-01-07T11:59:35;3.23;;;1.83;;
76194;SDS011;64964;48.694;21.206;2024-01-07T12:02:02;3.42;;;2.13;;
76194;SDS011;64964;48.694;21.206;2024-01-07T12:04:29;4.10;;;2.00;;
76194;SDS011;64964;48.694;21.206;2024-01-07T12:06:55;2.22;;;1.63;;
76194;SDS011;64964;48.694;21.206;2024-01-07T12:09:21;4.10;;;2.10;;
76194;SDS011;64964;48.694;21.206;2024-01-07T12:11:46;4.10;;;1.90;;
76194;SDS011;64964;48.694;21.206;2024-01-07T12:14:12;3.22;;;2.00;;
76194;SDS011;64964;48.694;21.206;2024-01-07T12:16:38;3.60;;;2.08;;
76194;SDS011;64964;48.694;21.206;2024-01-07T12:19:04;2.87;;;1.87;;
76194;SDS011;64964;48.694;21.206;2024-01-07T12:21:29;2.43;;;1.60;;
76194;SDS011;64964;48.694;21.206;2024-01-07T12:23:55;3.58;;;2.05;;
76194;SDS011;64964;48.694;21.206;2024-01-07T12:26:25;3.95;;;2.03;;
76194;SDS011;64964;48.694;21.206;2024-01-07T12:28:54;2.90;;;1.80;;
76194;SDS011;64964;48.694;21.206;2024-01-07T12:31:25;4.15;;;1.85;;
76194;SDS011;64964;48.694;21.206;2024-01-07T12:33:51;4.03;;;2.15;;
76194;SDS011;64964;48.694;21.206;2024-01-07T12:36:20;3.70;;;2.03;;
76194;SDS011;64964;48.694;21.206;2024-01-07T12:38:46;3.35;;;2.40;;
76194;SDS011;64964;48.694;21.206;2024-01-07T12:41:12;3.70;;;1.97;;
76194;SDS011;64964;48.694;21.206;2024-01-07T12:43:37;3.03;;;2.20;;
76194;SDS011;64964;48.694;21.206;2024-01-07T12:46:02;3.17;;;2.00;;
76194;SDS011;64964;48.694;21.206;2024-01-07T12:48:30;3.70;;;2.08;;
76194;SDS011;64964;48.694;21.206;2024-01-07T12:50:56;4.70;;;2.30;;
76194;SDS011;64964;48.694;21.206;2024-01-07T12:53:22;5.68;;;2.30;;
76194;SDS011;64964;48.694;21.206;2024-01-07T12:55:48;4.03;;;2.20;;
76194;SDS011;64964;48.694;21.206;2024-01-07T12:58:14;4.80;;;2.53;;
76194;SDS011;64964;48.694;21.206;2024-01-07T13:00:39;3.50;;;2.17;;
76194;SDS011;64964;48.694;21.206;2024-01-07T13:03:05;4.25;;;2.20;;
76194;SDS011;64964;48.694;21.206;2024-01-07T13:05:32;3.78;;;2.20;;
76194;SDS011;64964;48.694;21.206;2024-01-07T13:07:58;4.83;;;2.50;;
76194;SDS011;64964;48.694;21.206;2024-01-07T13:10:23;4.37;;;2.13;;
76194;SDS011;64964;48.694;21.206;2024-01-07T13:12:49;4.80;;;2.33;;
76194;SDS011;64964;48.694;21.206;2024-01-07T13:15:15;3.85;;;2.25;;
76194;SDS011;64964;48.694;21.206;2024-01-07T13:17:40;5.20;;;2.70;;
76194;SDS011;64964;48.694;21.206;2024-01-07T13:20:07;4.83;;;2.37;;
76194;SDS011;64964;48.694;21.206;2024-01-07T13:22:36;5.55;;;2.42;;
76194;SDS011;64964;48.694;21.206;2024-01-07T13:25:08;5.50;;;2.50;;
76194;SDS011;64964;48.694;21.206;2024-01-07T13:27:33;3.53;;;1.95;;
76194;SDS011;64964;48.694;21.206;2024-01-07T13:29:59;4.38;;;2.55;;
76194;SDS011;64964;48.694;21.206;2024-01-07T13:32:25;5.37;;;2.60;;
76194;SDS011;64964;48.694;21.206;2024-01-07T13:34:50;6.20;;;2.17;;
76194;SDS011;64964;48.694;21.206;2024-01-07T13:37:16;4.13;;;2.40;;
76194;SDS011;64964;48.694;21.206;2024-01-07T13:39:41;4.23;;;2.50;;
76194;SDS011;64964;48.694;21.206;2024-01-07T13:42:07;3.90;;;2.27;;
76194;SDS011;64964;48.694;21.206;2024-01-07T13:44:32;4.57;;;2.60;;
76194;SDS011;64964;48.694;21.206;2024-01-07T13:46:59;4.23;;;2.30;;
76194;SDS011;64964;48.694;21.206;2024-01-07T13:49:26;3.92;;;2.10;;
76194;SDS011;64964;48.694;21.206;2024-01-07T13:51:52;4.88;;;2.45;;
76194;SDS011;64964;48.694;21.206;2024-01-07T13:54:17;4.30;;;2.33;;
76194;SDS011;64964;48.694;21.206;2024-01-07T13:56:43;4.37;;;2.33;;
76194;SDS011;64964;48.694;21.206;2024-01-07T13:59:09;4.57;;;2.63;;
76194;SDS011;64964;48.694;21.206;2024-01-07T14:01:35;4.65;;;2.53;;
76194;SDS011;64964;48.694;21.206;2024-01-07T14:04:00;5.00;;;2.77;;
76194;SDS011;64964;48.694;21.206;2024-01-07T14:06:26;4.57;;;2.50;;
76194;SDS011;64964;48.694;21.206;2024-01-07T14:08:52;6.43;;;2.10;;
76194;SDS011;64964;48.694;21.206;2024-01-07T14:11:17;4.20;;;2.40;;
76194;SDS011;64964;48.694;21.206;2024-01-07T14:13:43;4.55;;;2.55;;
76194;SDS011;64964;48.694;21.206;2024-01-07T14:16:10;3.60;;;2.00;;
76194;SDS011;64964;48.694;21.206;2024-01-07T14:18:36;4.15;;;2.20;;
76194;SDS011;64964;48.694;21.206;2024-01-07T14:21:01;7.87;;;2.90;;
76194;SDS011;64964;48.694;21.206;2024-01-07T14:23:27;4.10;;;2.40;;
76194;SDS011;64964;48.694;21.206;2024-01-07T14:25:54;3.15;;;2.25;;
76194;SDS011;64964;48.694;21.206;2024-01-07T14:28:21;6.22;;;2.80;;
76194;SDS011;64964;48.694;21.206;2024-01-07T14:30:47;4.77;;;2.60;;
76194;SDS011;64964;48.694;21.206;2024-01-07T14:33:12;5.20;;;2.70;;
76194;SDS011;64964;48.694;21.206;2024-01-07T14:35:38;5.07;;;2.78;;
76194;SDS011;64964;48.694;21.206;2024-01-07T14:38:04;5.10;;;2.80;;